Latest Coastal Weather Observations for Ulladulla

IDN60701

Issued at 10:45 pm EST Wednesday 27 August 2014 (issued every 10 minutes, with the page automatically refreshed every 10 minutes)

About coastal observations | Map of coastal stations | Coastal observations for NSW | Marine services | Other Formats
Station Details ID: 069138 Name: ULLADULLA AWS Lat: -35.36 Lon: 150.48 Height: 35.7 m
Data from the previous 72 hours. | See also: Recent months at Ulladulla
Date/Time
EST
Temp

°C
Wind Pressure Rain
since 9am
mm
Weather Cloud Vis
km
Sea
Height
m
Swell
Dir
 
Speed
knots
Gust
knots
hPa Trend Height
m
Period
s
Dir
27/10:30pm 14.6 SSE 11 16 1028.2 - 0.0 - - - - - - -
27/10:00pm 14.6 S 12 16 1028.0 - 0.0 - - - - - - -
27/09:30pm 14.5 S 11 16 1028.1 - 0.0 - - - - - - -
27/09:00pm 14.6 SSE 10 15 1028.2 - 0.0 - - - - - - -
27/08:30pm 14.7 SSE 10 16 1028.2 - 0.0 - - - - - - -
27/08:00pm 14.6 SSE 11 15 1028.2 - 0.0 - - - - - - -
27/07:30pm 14.9 SSE 10 15 1028.2 - 0.0 - - - - - - -
27/07:00pm 14.6 SSE 9 14 1028.0 - 0.0 - - - - - - -
27/06:30pm 14.7 SSE 10 14 1027.7 - 0.0 - - - - - - -
27/06:00pm 14.6 SSE 11 14 1027.5 - 0.0 - - - - - - -
27/05:30pm 14.4 S 9 14 1027.4 - 0.0 - - - - - - -
27/05:00pm 14.7 S 12 16 1027.4 - 0.0 - - - - - - -
27/04:30pm 14.9 S 12 17 1027.1 - 0.0 - - - - - - -
27/04:00pm 15.2 S 13 18 1026.9 - 0.0 - - - - - - -
27/03:30pm 15.6 S 12 18 1026.8 - 0.0 - - - - - - -
27/03:00pm 16.1 S 11 14 1026.8 - 0.0 - - - - - - -
27/02:30pm 16.2 S 12 15 1026.8 - 0.0 - - - - - - -
27/02:00pm 16.5 S 10 14 1026.8 - 0.0 - - - - - - -
27/01:30pm 16.7 S 11 15 1027.0 - 0.0 - - - - - - -
27/01:00pm 17.1 S 9 15 1027.0 - 0.0 - - - - - - -
27/12:30pm 15.9 S 11 13 1027.3 - 0.0 - - - - - - -
27/12:00pm 17.0 S 9 11 1027.7 - 0.0 - - - - - - -
27/11:30am 16.3 S 8 10 1028.1 - 0.0 - - - - - - -
27/11:00am 16.6 S 9 12 1028.3 - 0.0 - - - - - - -
27/10:30am 16.4 S 8 12 1028.4 - 0.0 - - - - - - -
27/10:00am 16.1 S 8 11 1028.4 - 0.0 - - - - - - -
27/09:30am 15.9 SE 7 11 1028.4 - 0.0 - - - - - - -
27/09:00am 14.7 SSE 7 11 1028.1 - 6.8 Recent precip. - - - - - -
27/08:30am 12.9 SSE 10 17 1028.2 - 6.2 - - - - - - -
27/08:00am 15.2 S 9 13 1027.8 - 4.2 - - - - - - -
27/07:30am 14.7 SSE 7 12 1027.7 - 4.2 - - - - - - -
27/07:00am 14.2 SSE 9 13 1027.5 - 4.2 - - - - - - -
27/06:30am 14.0 SSE 10 15 1027.3 - 4.2 - - - - - - -
27/06:00am 13.9 SSE 9 14 1027.2 - 4.2 - - - - - - -
27/05:30am 14.0 SSE 10 14 1027.1 - 4.2 - - - - - - -
27/05:00am 14.1 SSE 10 14 1027.0 - 4.2 - - - - - - -
27/04:30am 14.1 SSE 9 14 1026.8 - 4.2 - - - - - - -
27/04:00am 14.1 SSE 10 15 1026.8 - 4.2 - - - - - - -
27/03:30am 14.1 SSE 10 14 1026.8 - 4.2 - - - - - - -
27/03:00am 14.1 SSE 9 14 1026.9 - 4.2 - - - - - - -
27/02:30am 14.2 SSE 9 12 1027.1 - 4.2 - - - - - - -
27/02:00am 14.2 SSE 9 14 1027.3 - 4.2 - - - - - - -
27/01:30am 14.3 SSE 10 14 1027.4 - 4.2 - - - - - - -
27/01:00am 14.4 SSE 11 15 1027.6 - 4.2 - - - - - - -
27/12:30am 14.6 SE 9 13 1027.5 - 4.2 - - - - - - -
27/12:00am 14.7 SE 11 17 1027.5 - 4.2 - - - - - - -
 
Date/Time
EST
Temp

°C
Wind Pressure Rain
since 9am
mm
Weather Cloud Vis
km
Sea
Height
m
Swell
Dir
 
Speed
knots
Gust
knots
hPa Trend Height
m
Period
s
Dir
26/11:30pm 14.9 SE 11 16 1027.5 - 4.2 - - - - - - -
26/11:00pm 14.8 SE 12 18 1027.6 - 4.2 - - - - - - -
26/10:30pm 15.0 SE 12 17 1027.7 - 4.2 - - - - - - -
26/10:00pm 15.2 SE 9 13 1027.8 - 4.2 - - - - - - -
26/09:30pm 15.1 SE 9 15 1027.7 - 4.2 - - - - - - -
26/09:00pm 15.2 ESE 8 13 1027.8 - 4.2 - - - - - - -
26/08:30pm 15.1 SE 7 13 1027.6 - 4.2 - - - - - - -
26/08:00pm 15.2 SE 7 12 1027.6 - 4.2 - - - - - - -
26/07:30pm 15.2 SE 8 14 1027.3 - 4.2 - - - - - - -
26/07:00pm 15.2 ESE 7 14 1026.9 - 4.2 - - - - - - -
26/06:30pm 15.4 ESE 8 13 1026.5 - 4.2 - - - - - - -
26/06:00pm 15.2 ESE 8 14 1026.3 - 4.2 - - - - - - -
26/05:30pm 15.4 ESE 8 12 1026.2 - 4.2 - - - - - - -
26/05:00pm 15.6 ESE 7 13 1025.9 - 4.2 - - - - - - -
26/04:30pm 15.7 ESE 8 14 1025.7 - 4.2 - - - - - - -
26/04:00pm 15.7 ESE 9 14 1025.7 - 4.2 - - - - - - -
26/03:30pm 15.8 ESE 8 13 1025.5 - 4.2 - - - - - - -
26/03:00pm 15.7 ESE 7 13 1025.6 - 4.2 - - - - - - -
26/02:30pm 15.4 ESE 6 11 1025.4 - 4.2 - - - - - - -
26/02:00pm 15.2 ESE 5 10 1025.6 - 4.2 - - - - - - -
26/01:30pm 14.3 E 2 4 1025.9 - 4.2 - - - - - - -
26/01:00pm 14.6 E 4 8 1026.2 - 3.8 - - - - - - -
26/12:30pm 14.6 E 5 13 1026.2 - 3.6 - - - - - - -
26/12:00pm 14.9 E 6 13 1026.4 - 3.2 Recent precip. - - - - - -
26/11:30am 15.4 ESE 2 5 1026.4 - 3.0 - - - - - - -
26/11:00am 14.8 E 3 8 1026.7 - 3.0 - - - - - - -
26/10:30am 14.3 ESE 6 12 1026.9 - 2.8 - - - - - - -
26/10:00am 13.2 SE 6 11 1027.1 - 2.6 - - - - - - -
26/09:30am 13.1 SSW 5 8 1026.9 - 1.6 - - - - - - -
26/09:00am 12.8 SSW 5 7 1026.9 - 45.2 Rain - - - - - -
26/08:30am 12.3 SSW 5 8 1026.6 - 43.2 - - - - - - -
26/08:00am 11.9 SW 6 11 1026.5 - 41.0 - - - - - - -
26/07:30am 11.9 SSW 9 14 1026.1 - 39.6 - - - - - - -
26/07:00am 12.7 SSW 7 10 1025.7 - 38.2 - - - - - - -
26/06:30am 12.9 SSE 8 12 1025.5 - 37.2 - - - - - - -
26/06:00am 12.4 SE 4 7 1025.2 - 36.4 Rain - - - - - -
26/05:30am 12.4 SSE 10 15 1024.9 - 34.0 - - - - - - -
26/05:00am 13.2 SSE 5 10 1024.8 - 31.8 - - - - - - -
26/04:30am 12.9 ESE 4 6 1024.7 - 30.6 - - - - - - -
26/04:00am 13.3 E 7 11 1025.0 - 29.4 - - - - - - -
26/03:30am 13.4 E 6 12 1024.7 - 28.8 - - - - - - -
26/03:00am 13.7 ENE 8 16 1024.7 - 28.2 - - - - - - -
26/02:30am 13.9 E 9 19 1024.6 - 28.2 - - - - - - -
26/02:00am 14.1 E 10 18 1024.6 - 28.2 - - - - - - -
26/01:30am 14.2 E 9 16 1024.3 - 28.2 - - - - - - -
26/01:00am 14.3 E 7 16 1024.4 - 27.8 - - - - - - -
26/12:30am 13.5 NE 4 7 1024.4 - 27.6 - - - - - - -
26/12:00am 13.6 NE 7 15 1024.5 - 27.0 Rain - - - - - -
 
Date/Time
EST
Temp

°C
Wind Pressure Rain
since 9am
mm
Weather Cloud Vis
km
Sea
Height
m
Swell
Dir
 
Speed
knots
Gust
knots
hPa Trend Height
m
Period
s
Dir
25/11:30pm 13.1 WSW 4 8 1024.2 - 26.4 - - - - - - -
25/11:00pm 12.6 W 6 9 1024.4 - 25.2 - - - - - - -
25/10:30pm 12.7 WNW 3 7 1024.5 - 22.8 - - - - - - -
25/10:00pm 12.8 SSW 8 12 1024.8 - 16.8 - - - - - - -
25/09:30pm 13.1 SSW 10 15 1024.7 - 7.2 - - - - - - -
25/09:00pm 13.4 S 12 15 1024.9 - 5.4 Recent precip. - - - - - -
25/08:30pm 13.8 S 10 15 1025.0 - 4.8 - - - - - - -
25/08:00pm 13.7 S 9 13 1025.0 - 3.4 - - - - - - -
25/07:30pm 12.9 SSW 4 6 1025.0 - 3.2 - - - - - - -
25/07:00pm 13.2 SSE 8 13 1025.1 - 1.6 - - - - - - -
25/06:30pm 13.8 SE 7 11 1024.6 - 0.8 - - - - - - -
25/06:00pm 14.3 E 6 15 1024.3 - 0.0 - - - - - - -
25/05:30pm 14.8 ESE 10 15 1023.6 - 0.0 - - - - - - -
25/05:00pm 14.8 CALM 0 2 1023.6 - 0.0 - - - - - - -
25/04:30pm 15.0 ENE 4 6 1023.6 - 0.0 - - - - - - -
25/04:00pm 16.5 ESE 4 8 1023.4 - 0.0 - - - - - - -
25/03:30pm 16.4 S 6 9 1023.5 - 0.0 - - - - - - -
25/03:00pm 16.7 S 7 9 1023.6 - 0.0 - - - - - - -
25/02:30pm 16.3 S 8 10 1023.8 - 0.0 - - - - - - -
25/02:00pm 16.4 S 8 11 1023.6 - 0.0 - - - - - - -
25/01:30pm 16.0 S 9 12 1023.9 - 0.0 - - - - - - -
25/01:00pm 17.1 S 7 11 1024.2 - 0.0 - - - - - - -
25/12:30pm 16.1 S 11 14 1024.4 - 0.0 - - - - - - -
25/12:00pm 15.6 S 12 14 1024.9 - 0.0 - - - - - - -
25/11:30am 15.7 S 11 13 1025.1 - 0.0 - - - - - - -
25/11:00am 15.8 S 10 11 1025.3 - 0.0 - - - - - - -
25/10:30am 15.9 S 9 11 1025.3 - 0.0 - - - - - - -
25/10:00am 15.9 S 6 8 1025.6 - 0.0 - - - - - - -
25/09:30am 15.1 S 5 6 1025.5 - 0.0 - - - - - - -
25/09:00am 14.2 S 3 4 1025.5 - 0.0 - - - - - - -
25/08:30am 13.9 S 4 5 1025.2 - 0.0 - - - - - - -
25/08:00am 13.3 SE 2 3 1025.3 - 0.0 - - - - - - -
25/07:30am 12.7 CALM 0 2 1025.0 - 0.0 - - - - - - -
25/07:00am 11.0 W 1 2 1025.0 - 0.0 - - - - - - -
25/06:30am 10.2 CALM 0 0 1024.8 - 0.0 - - - - - - -
25/06:00am 10.0 CALM 0 0 1024.5 - 0.0 - - - - - - -
25/05:30am 10.4 NNW 3 4 1024.2 - 0.0 - - - - - - -
25/05:00am 10.2 N 2 4 1023.9 - 0.0 - - - - - - -
25/04:30am 10.1 WNW 1 3 1023.7 - 0.0 - - - - - - -
25/04:00am 10.7 NNW 3 4 1023.7 - 0.0 - - - - - - -
25/03:30am 11.0 N 3 5 1023.7 - 0.0 - - - - - - -
25/03:00am 11.0 NNW 3 4 1024.0 - 0.0 - - - - - - -
25/02:30am 11.1 N 3 4 1024.2 - 0.0 - - - - - - -
25/02:00am 11.5 N 3 4 1024.7 - 0.0 - - - - - - -
25/01:30am 11.9 N 2 4 1024.9 - 0.0 - - - - - - -
25/01:00am 11.7 N 4 5 1025.2 - 0.0 - - - - - - -
25/12:30am 11.8 N 4 5 1025.4 - 0.0 - - - - - - -
25/12:00am 12.1 N 3 4 1025.6 - 0.0 - - - - - - -
 
Date/Time
EST
Temp

°C
Wind Pressure Rain
since 9am
mm
Weather Cloud Vis
km
Sea
Height
m
Swell
Dir
 
Speed
knots
Gust
knots
hPa Trend Height
m
Period
s
Dir
24/11:30pm 12.3 NNW 4 6 1025.7 - 0.0 - - - - - - -
24/11:00pm 13.1 N 4 6 1025.9 - 0.0 - - - - - - -

Other Formats:

Comma delimited format used in spreadsheet applications
http://www.bom.gov.au/fwo/IDN60701/IDN60701.94938.axf

JavaScript Object Notation format (JSON) in row-major order
http://www.bom.gov.au/fwo/IDN60701/IDN60701.94938.json